Time;durP1;ratioP1;P1;durP2;ratioP2;P2;SDS_P1;SDS_P2;PMS_P1;PMS_P2;Temp;Humidity;BMP_temperature;BMP_pressure;BME280_temperature;BME280_humidity;BME280_pressure;Samples;Min_cycle;Max_cycle;Signal;HPM_P1;HPM_P2
2022/08/16 00:00:49;;;;;;;2.35;2.25;;;23.00;99.90;;;23.25;83.89;100443.03;4826725;29;20158;-64
2022/08/16 00:03:19;;;;;;;2.40;2.30;;;23.00;99.90;;;23.20;84.39;100453.28;4826561;29;20542;-64
2022/08/16 00:05:51;;;;;;;2.58;2.47;;;22.90;99.90;;;23.19;84.46;100448.81;4826548;29;20069;-64
2022/08/16 00:08:26;;;;;;;2.40;2.30;;;22.80;99.90;;;23.17;84.62;100449.91;4826242;29;20099;-64
2022/08/16 00:11:08;;;;;;;1.70;1.70;;;22.80;99.90;;;23.15;84.27;100446.44;4826282;29;20042;-64
2022/08/16 00:13:47;;;;;;;2.20;2.10;;;22.80;99.90;;;22.99;84.01;100407.88;4826560;29;20434;-64
2022/08/16 00:16:23;;;;;;;2.25;2.15;;;22.80;99.90;;;23.15;83.34;100447.28;4825081;29;20055;-64
2022/08/16 00:19:17;;;;;;;2.28;2.17;;;22.80;99.90;;;23.11;82.77;100447.59;4826369;29;20111;-64
2022/08/16 00:21:46;;;;;;;2.10;2.00;;;22.80;99.90;;;23.12;83.21;100447.47;4826113;29;20039;-63
2022/08/16 00:24:23;;;;;;;2.20;2.10;;;22.80;99.90;;;23.06;83.20;100460.47;4826000;29;20042;-64
2022/08/16 00:27:05;;;;;;;2.20;2.10;;;22.70;99.90;;;23.04;82.81;100457.88;4826010;29;20046;-64
2022/08/16 00:29:35;;;;;;;2.17;2.08;;;22.70;99.90;;;23.07;82.80;100468.47;4825985;29;20081;-64
2022/08/16 00:32:07;;;;;;;2.10;2.00;;;22.70;99.90;;;23.10;82.55;100464.72;4826184;29;20138;-63
2022/08/16 00:34:38;;;;;;;2.42;2.33;;;22.70;99.90;;;23.04;82.53;100468.66;4826244;29;20058;-64
2022/08/16 00:37:23;;;;;;;2.25;2.15;;;22.60;99.90;;;23.00;82.11;100472.53;4826146;29;20061;-64
2022/08/16 00:40:14;;;;;;;2.42;2.33;;;22.60;99.90;;;22.98;82.10;100471.75;4826125;29;20050;-63
2022/08/16 00:43:08;;;;;;;2.22;2.13;;;22.60;99.90;;;23.00;81.14;100468.94;4826010;29;20145;-63
2022/08/16 00:45:56;;;;;;;2.13;2.03;;;22.60;99.90;;;23.01;80.72;100470.69;4825931;29;20095;-63
2022/08/16 00:48:30;;;;;;;2.13;2.03;;;22.60;99.90;;;23.03;80.60;100469.66;4825967;29;20116;-63
2022/08/16 00:51:16;;;;;;;2.13;2.03;;;22.70;99.90;;;23.07;79.83;100470.31;4825604;29;20493;-63
2022/08/16 00:53:45;;;;;;;2.30;2.20;;;22.70;99.90;;;23.01;79.61;100441.00;4825925;29;20042;-63
2022/08/16 00:56:19;;;;;;;1.90;1.80;;;22.80;99.90;;;23.06;79.31;100438.88;4824791;29;20133;-63
2022/08/16 00:59:13;;;;;;;2.30;2.20;;;22.80;99.90;;;23.14;79.01;100461.75;4824420;29;20056;-63
2022/08/16 01:01:45;;;;;;;2.30;2.20;;;22.90;99.90;;;23.17;78.86;100466.09;4825661;29;20051;-63
2022/08/16 01:04:22;;;;;;;2.00;1.90;;;22.90;99.90;;;23.18;78.57;100465.13;4825864;29;20082;-63
2022/08/16 01:07:01;;;;;;;2.03;1.92;;;22.80;99.90;;;23.32;78.78;100456.19;4825631;29;20093;-63
2022/08/16 01:09:32;;;;;;;2.35;2.25;;;22.90;99.90;;;23.30;78.21;100442.75;4824422;29;20144;-63
2022/08/16 01:12:04;;;;;;;1.80;1.75;;;23.00;99.90;;;23.37;77.97;100454.03;4825573;29;20095;-64
2022/08/16 01:14:44;;;;;;;2.08;1.98;;;23.00;99.90;;;23.41;77.80;100455.59;4825571;29;20046;-64
2022/08/16 01:17:16;;;;;;;2.10;2.00;;;23.10;99.90;;;23.42;77.61;100450.13;4824736;29;20070;-63
2022/08/16 01:19:49;;;;;;;2.45;2.35;;;23.10;99.90;;;23.42;77.79;100451.94;4825662;29;20051;-63
2022/08/16 01:22:29;;;;;;;2.03;1.92;;;23.10;99.90;;;23.24;78.02;100451.25;4825400;29;20046;-64
2022/08/16 01:25:25;;;;;;;2.05;1.95;;;23.00;99.90;;;23.07;78.16;100443.34;4824071;29;20087;-63
2022/08/16 01:28:11;;;;;;;2.15;2.05;;;22.80;99.90;;;23.16;78.44;100451.72;4823967;29;20050;-66
2022/08/16 01:30:52;;;;;;;2.13;2.03;;;22.80;99.90;;;23.12;78.52;100455.56;4825503;29;20059;-66
2022/08/16 01:33:21;;;;;;;2.20;2.10;;;22.70;99.90;;;23.10;78.76;100445.84;4823914;29;20468;-66
2022/08/16 01:35:57;;;;;;;2.25;2.15;;;22.70;99.90;;;23.03;78.87;100437.28;4823661;29;20055;-66
2022/08/16 01:38:30;;;;;;;2.25;2.15;;;22.60;99.90;;;23.02;80.32;100453.53;4825100;29;20056;-66
2022/08/16 01:41:06;;;;;;;2.08;1.98;;;22.60;99.90;;;22.89;80.40;100449.88;4823490;29;20060;-66
2022/08/16 01:43:41;;;;;;;2.33;2.22;;;22.50;99.90;;;22.79;80.71;100452.25;4823694;29;20077;-66
2022/08/16 01:46:22;;;;;;;2.63;2.53;;;22.30;99.90;;;22.88;80.64;100458.94;4823684;29;20497;-67
2022/08/16 01:49:18;;;;;;;2.33;2.22;;;22.40;99.90;;;22.90;80.28;100449.75;4823749;29;20189;-66
2022/08/16 01:51:53;;;;;;;2.17;2.08;;;22.40;99.90;;;22.97;80.19;100463.75;4823683;29;20385;-66
2022/08/16 01:55:00;;;;;;;2.15;2.05;;;22.50;99.90;;;22.98;79.62;100460.94;4814425;29;20054;-67
2022/08/16 01:57:34;;;;;;;2.10;2.00;;;22.60;99.90;;;23.00;79.29;100456.34;4823552;29;20095;-66
2022/08/16 02:00:09;;;;;;;2.30;2.20;;;22.60;99.90;;;23.05;78.87;100458.75;4823646;29;20409;-67
2022/08/16 02:02:46;;;;;;;2.10;2.00;;;22.70;99.90;;;23.14;78.55;100459.03;4823565;29;20493;-67
2022/08/16 02:05:21;;;;;;;2.28;2.17;;;22.80;99.90;;;23.15;78.22;100455.38;4823468;29;20492;-66
2022/08/16 02:07:51;;;;;;;2.30;2.20;;;22.80;99.90;;;23.23;78.07;100453.06;4823363;29;20631;-67
2022/08/16 02:10:21;;;;;;;2.33;2.22;;;22.90;99.90;;;23.20;77.63;100447.88;4823552;29;20054;-66
2022/08/16 02:12:59;;;;;;;2.30;2.20;;;22.90;99.90;;;23.19;77.22;100447.94;4823175;29;20409;-66
2022/08/16 02:15:32;;;;;;;2.22;2.13;;;22.90;99.90;;;23.15;77.94;100446.44;4823276;29;20509;-66
2022/08/16 02:18:12;;;;;;;2.20;2.10;;;22.80;99.90;;;23.01;77.44;100451.81;4824179;29;20130;-67
2022/08/16 02:20:50;;;;;;;2.10;2.00;;;22.60;99.90;;;22.93;77.74;100438.81;4824546;29;20133;-66
2022/08/16 02:23:22;;;;;;;2.13;2.03;;;22.50;99.90;;;22.90;77.89;100446.22;4824541;29;20055;-66
2022/08/16 02:25:55;;;;;;;2.20;2.10;;;22.50;99.90;;;22.84;77.99;100452.84;4823174;29;20082;-66
2022/08/16 02:28:28;;;;;;;2.00;1.90;;;22.50;99.90;;;22.81;78.02;100455.72;4822954;29;20047;-66
2022/08/16 02:31:03;;;;;;;2.42;2.33;;;22.40;99.90;;;22.79;78.17;100459.47;4822604;29;20054;-66
2022/08/16 02:33:33;;;;;;;2.35;2.25;;;22.40;99.90;;;22.74;77.80;100453.50;4824230;29;20073;-66
2022/08/16 02:36:28;;;;;;;2.13;2.03;;;22.40;99.90;;;22.65;78.16;100435.19;4822893;29;20145;-66
2022/08/16 02:39:19;;;;;;;2.30;2.20;;;22.40;99.90;;;22.73;78.12;100458.03;4823047;29;20401;-66
2022/08/16 02:41:53;;;;;;;3.42;3.22;;;22.40;99.90;;;22.71;78.17;100451.84;4822976;29;20105;-66
2022/08/16 02:44:25;;;;;;;2.30;2.20;;;22.40;99.90;;;22.79;78.02;100448.69;4822792;29;20099;-66
2022/08/16 02:46:55;;;;;;;2.15;2.05;;;22.40;99.90;;;22.79;77.69;100454.97;4822984;29;20058;-66
2022/08/16 02:49:25;;;;;;;2.42;2.33;;;22.50;99.90;;;22.87;77.50;100465.28;4822662;29;20089;-66
2022/08/16 02:52:20;;;;;;;2.20;2.10;;;22.50;99.90;;;22.92;77.24;100460.44;4822815;29;20046;-66
2022/08/16 02:55:02;;;;;;;2.35;2.25;;;22.50;99.90;;;22.99;77.19;100462.72;4822966;29;20065;-66
2022/08/16 02:57:32;;;;;;;2.40;2.30;;;22.60;99.90;;;23.04;76.86;100457.88;4823103;29;20559;-66
2022/08/16 03:00:07;;;;;;;2.27;2.17;;;22.60;99.90;;;23.05;76.73;100454.19;4824409;29;20114;-67
2022/08/16 03:02:56;;;;;;;2.25;2.15;;;22.70;99.90;;;23.02;76.67;100450.84;4824012;29;20446;-66
2022/08/16 03:05:26;;;;;;;2.45;2.35;;;22.70;99.90;;;22.41;76.44;100360.19;4824150;29;20053;-67
2022/08/16 03:08:01;;;;;;;2.13;2.03;;;22.70;99.90;;;22.98;76.61;100457.38;4822744;29;20451;-67
2022/08/16 03:10:35;;;;;;;2.60;2.50;;;22.60;99.90;;;23.00;76.35;100460.84;4822742;29;20050;-66
2022/08/16 03:13:11;;;;;;;2.10;2.00;;;22.60;99.90;;;23.01;76.33;100457.22;4822336;29;20572;-66
2022/08/16 03:15:43;;;;;;;1.90;1.83;;;22.60;99.90;;;22.95;76.02;100457.59;4822505;29;20054;-66
2022/08/16 03:18:20;;;;;;;2.20;2.10;;;22.60;99.90;;;22.88;76.01;100451.69;4822705;29;20077;-66
2022/08/16 03:21:06;;;;;;;2.20;2.10;;;22.60;99.90;;;22.87;75.96;100457.19;4822892;29;20103;-66
2022/08/16 03:23:40;;;;;;;2.00;1.90;;;22.50;99.90;;;22.89;76.01;100449.88;4823783;29;20051;-66
2022/08/16 03:26:12;;;;;;;3.80;3.50;;;22.50;99.90;;;22.97;75.90;100447.56;4823793;29;20054;-66
2022/08/16 03:28:47;;;;;;;4.25;4.03;;;22.60;99.90;;;22.98;75.51;100454.69;4822474;29;20137;-67
2022/08/16 03:31:18;;;;;;;2.40;2.30;;;22.60;99.90;;;22.91;75.50;100447.94;4822479;29;20312;-66
2022/08/16 03:33:47;;;;;;;2.80;2.70;;;22.60;99.90;;;22.90;75.45;100457.00;4822416;29;20050;-66
2022/08/16 03:36:20;;;;;;;2.28;2.17;;;22.50;99.90;;;22.87;75.37;100455.38;4822306;29;20059;-66
2022/08/16 03:39:05;;;;;;;2.30;2.20;;;22.50;99.90;;;22.83;75.38;100451.13;4822616;29;20061;-66
2022/08/16 03:41:44;;;;;;;2.20;2.10;;;22.50;99.90;;;22.86;75.33;100456.31;4824529;29;20046;-66
2022/08/16 03:44:20;;;;;;;2.58;2.40;;;22.50;99.90;;;22.81;75.21;100461.13;4825601;29;20576;-66
2022/08/16 03:47:10;;;;;;;2.17;2.08;;;22.40;99.90;;;22.86;75.53;100469.78;4825437;29;20511;-66
2022/08/16 03:49:40;;;;;;;3.42;3.33;;;22.40;99.90;;;22.87;75.59;100460.75;4826310;29;20501;-66
2022/08/16 03:52:12;;;;;;;2.88;2.65;;;22.40;99.90;;;22.85;75.46;100459.97;4825476;29;20046;-66
2022/08/16 03:54:42;;;;;;;2.35;2.25;;;22.50;99.90;;;22.83;75.82;100463.72;4825425;29;20152;-66
2022/08/16 03:57:24;;;;;;;2.50;2.40;;;22.40;99.90;;;22.79;75.87;100467.56;4825420;29;20058;-67
2022/08/16 04:00:12;;;;;;;2.67;2.58;;;22.40;99.90;;;22.72;76.10;100460.81;4825385;29;20408;-66
2022/08/16 04:03:06;;;;;;;2.75;2.65;;;22.40;99.90;;;22.73;76.68;100471.50;4825247;29;20058;-66
2022/08/16 04:05:42;;;;;;;2.15;2.05;;;22.40;99.90;;;22.79;76.72;100472.97;4825226;29;20103;-66
2022/08/16 04:08:20;;;;;;;2.42;2.33;;;22.40;99.90;;;22.71;76.92;100459.94;4825161;29;20124;-68
2022/08/16 04:10:55;;;;;;;2.33;2.22;;;22.40;99.90;;;22.76;76.98;100476.72;4825230;29;20054;-63
2022/08/16 04:13:27;;;;;;;2.75;2.65;;;22.40;99.90;;;22.78;77.17;100484.72;4824824;29;20115;-66
2022/08/16 04:16:17;;;;;;;2.27;2.17;;;22.40;99.90;;;22.72;77.42;100482.41;4825388;29;20038;-67
2022/08/16 04:19:01;;;;;;;2.45;2.35;;;22.40;99.90;;;22.67;77.47;100479.97;4825252;29;20307;-67
2022/08/16 04:21:35;;;;;;;2.15;2.05;;;22.40;99.90;;;22.78;77.16;100484.72;4824977;29;20054;-67
2022/08/16 04:24:19;;;;;;;2.42;2.33;;;22.40;99.90;;;22.74;77.19;100492.16;4824898;29;20074;-67
2022/08/16 04:26:48;;;;;;;2.40;2.30;;;22.40;99.90;;;22.69;77.22;100491.53;4824813;29;20046;-68
2022/08/16 04:29:17;;;;;;;2.40;2.30;;;22.30;99.90;;;22.73;77.21;100497.59;4824859;29;20401;-68
2022/08/16 04:31:55;;;;;;;2.42;2.33;;;22.30;99.90;;;22.72;77.18;100494.06;4824897;29;20047;-68
2022/08/16 04:34:35;;;;;;;2.40;2.30;;;22.30;99.90;;;22.72;77.28;100493.19;4824866;29;20055;-68
2022/08/16 04:37:06;;;;;;;2.75;2.65;;;22.30;99.90;;;22.69;77.04;100480.75;4824553;29;20066;-68
2022/08/16 04:39:40;;;;;;;2.17;2.08;;;22.30;99.90;;;22.63;77.15;100477.56;4824715;29;20394;-68
2022/08/16 04:42:18;;;;;;;2.33;2.22;;;22.30;99.90;;;22.71;76.95;100489.63;4824730;29;20509;-68
2022/08/16 04:44:57;;;;;;;2.40;2.30;;;22.40;99.90;;;22.72;76.98;100499.47;4824613;29;20061;-68
2022/08/16 04:47:31;;;;;;;5.68;5.28;;;22.40;99.90;;;22.73;76.96;100497.59;4824550;29;20054;-68
2022/08/16 04:50:11;;;;;;;2.47;2.38;;;22.30;99.90;;;22.80;76.67;100490.91;4824648;29;20072;-68
2022/08/16 04:52:59;;;;;;;4.82;3.28;;;22.40;99.90;;;22.77;76.71;100501.84;4824620;29;20501;-68
2022/08/16 04:55:31;;;;;;;3.00;2.90;;;22.40;99.90;;;22.73;76.77;100500.31;4824445;29;20091;-68
2022/08/16 04:58:08;;;;;;;2.08;1.98;;;22.40;99.90;;;22.57;76.65;100476.09;4825588;29;20133;-68
2022/08/16 05:00:58;;;;;;;2.13;2.03;;;22.40;99.90;;;22.66;76.88;100509.72;4824420;29;20050;-68
2022/08/16 05:03:27;;;;;;;3.58;3.38;;;22.30;99.90;;;22.67;77.12;100512.31;4824338;29;20089;-67
2022/08/16 05:05:57;;;;;;;2.70;2.60;;;22.30;99.90;;;22.23;77.19;100431.38;4824251;29;20055;-67
2022/08/16 05:08:30;;;;;;;2.40;2.30;;;22.30;99.90;;;22.68;77.46;100507.81;4824571;29;20054;-67
2022/08/16 05:11:17;;;;;;;2.20;2.10;;;22.30;99.90;;;22.84;77.12;100508.63;4824192;29;20090;-67
2022/08/16 05:13:49;;;;;;;2.30;2.20;;;22.50;99.90;;;22.61;77.50;100482.19;4825413;29;20131;-68
2022/08/16 05:16:27;;;;;;;3.90;3.72;;;22.50;99.90;;;22.75;77.56;100520.84;4824176;29;20054;-67
2022/08/16 05:19:08;;;;;;;2.40;2.30;;;22.40;99.90;;;22.71;77.44;100508.50;4824153;29;20046;-68
2022/08/16 05:21:45;;;;;;;2.10;2.00;;;22.40;99.90;;;22.64;78.12;100517.03;4824087;29;20511;-67
2022/08/16 05:24:13;;;;;;;2.22;2.13;;;22.30;99.90;;;22.67;78.05;100516.84;4824031;29;20057;-67
2022/08/16 05:26:51;;;;;;;2.00;1.90;;;22.30;99.90;;;22.73;77.99;100521.88;4824106;29;20074;-67
2022/08/16 05:29:20;;;;;;;5.45;4.70;;;22.40;99.90;;;22.79;77.76;100526.91;4823904;29;20070;-67
2022/08/16 05:32:06;;;;;;;2.25;2.15;;;22.40;99.90;;;22.88;77.89;100531.78;4823901;29;20054;-67
2022/08/16 05:34:55;;;;;;;2.50;2.40;;;22.50;99.90;;;22.74;77.71;100534.41;4823893;29;20046;-67
2022/08/16 05:37:24;;;;;;;2.83;2.72;;;22.50;99.90;;;22.61;77.94;100534.25;4823440;29;20062;-67
2022/08/16 05:39:56;;;;;;;2.55;2.45;;;22.30;99.90;;;22.51;78.61;100538.44;4824051;29;20058;-67
2022/08/16 05:42:25;;;;;;;3.05;2.95;;;22.20;99.90;;;22.54;79.68;100540.06;4823801;29;20077;-67
2022/08/16 05:45:06;;;;;;;2.45;2.35;;;22.20;99.90;;;22.72;80.01;100545.31;4823856;29;20501;-67
2022/08/16 05:47:37;;;;;;;2.25;2.15;;;22.30;99.90;;;22.87;80.11;100543.50;4823693;29;20050;-67
2022/08/16 05:50:11;;;;;;;2.30;2.20;;;22.50;99.90;;;23.01;80.10;100540.84;4823753;29;20047;-67
2022/08/16 05:52:49;;;;;;;2.70;2.60;;;22.60;99.90;;;23.08;79.87;100531.41;4823602;29;20050;-67
2022/08/16 05:55:19;;;;;;;3.50;3.20;;;22.80;99.90;;;23.25;79.89;100542.03;4823595;29;20073;-68
2022/08/16 05:57:50;;;;;;;2.47;2.38;;;22.90;99.90;;;23.38;80.03;100543.06;4823592;29;20103;-67
2022/08/16 06:00:20;;;;;;;3.20;3.05;;;23.10;99.90;;;23.49;79.79;100548.66;4823508;29;20073;-67
2022/08/16 06:02:52;;;;;;;2.88;2.78;;;23.20;99.90;;;23.59;79.75;100555.22;4823471;29;20054;-67
2022/08/16 06:06:00;;;;;;;2.78;2.67;;;23.20;99.90;;;23.75;79.54;100557.81;4820913;29;20099;-67
2022/08/16 06:08:34;;;;;;;2.40;2.30;;;23.40;99.90;;;23.87;79.13;100560.59;4823389;29;20058;-68
2022/08/16 06:11:10;;;;;;;2.30;2.20;;;23.50;99.90;;;24.00;79.05;100552.56;4823307;29;20046;-71
2022/08/16 06:13:44;;;;;;;2.28;2.17;;;23.60;99.90;;;24.15;78.84;100547.09;4823204;29;20083;-71
2022/08/16 06:16:19;;;;;;;2.08;1.98;;;23.80;99.90;;;24.27;78.21;100549.94;4823407;29;20145;-70
2022/08/16 06:18:52;;;;;;;2.20;2.10;;;23.90;99.90;;;24.30;77.92;100555.13;4823250;29;20524;-67
2022/08/16 06:21:21;;;;;;;7.40;6.38;;;23.90;99.90;;;24.24;77.95;100529.38;4822915;29;20099;-69
2022/08/16 06:23:58;;;;;;;2.10;2.00;;;24.00;99.90;;;24.45;77.98;100554.97;4823256;29;20413;-69
2022/08/16 06:26:31;;;;;;;1.80;1.80;;;24.10;99.90;;;24.58;78.00;100552.34;4823087;29;20054;-69
2022/08/16 06:29:07;;;;;;;6.18;5.63;;;24.20;99.90;;;24.68;77.64;100545.34;4822752;29;20146;-69
2022/08/16 06:31:38;;;;;;;2.13;2.03;;;24.30;99.90;;;24.77;76.98;100537.50;4823113;29;20055;-69
2022/08/16 06:34:19;;;;;;;2.35;2.25;;;24.40;99.90;;;24.80;76.97;100539.97;4823074;29;20056;-69
2022/08/16 06:37:11;;;;;;;2.10;2.00;;;24.50;99.90;;;24.75;77.10;100534.03;4822702;29;20069;-68
2022/08/16 06:39:42;;;;;;;2.85;2.75;;;24.60;99.90;;;24.94;76.43;100553.44;4823180;29;20464;-68
2022/08/16 06:42:27;;;;;;;2.00;1.90;;;24.60;99.90;;;25.02;76.16;100564.63;4822833;29;20061;-69
2022/08/16 06:45:30;;;;;;;2.42;2.33;;;24.70;99.90;;;25.11;76.17;100557.69;4818704;29;20063;-69
2022/08/16 06:48:07;;;;;;;2.15;2.05;;;24.80;99.90;;;25.14;76.02;100562.03;4822990;29;20065;-69
2022/08/16 06:50:36;;;;;;;2.10;2.00;;;24.90;99.90;;;25.29;76.06;100566.38;4822971;29;20116;-69
2022/08/16 06:53:08;;;;;;;2.30;2.20;;;25.00;99.90;;;25.34;76.20;100583.19;4822972;29;20054;-69
2022/08/16 06:55:44;;;;;;;2.22;2.13;;;25.00;99.90;;;25.40;75.54;100572.81;4822920;29;20413;-69
2022/08/16 06:58:15;;;;;;;2.13;2.03;;;25.00;99.90;;;25.48;75.23;100575.84;4822900;29;20119;-70
2022/08/16 07:00:56;;;;;;;1.92;1.88;;;25.20;99.90;;;25.57;75.40;100572.47;4822868;29;20501;-69
2022/08/16 07:03:31;;;;;;;1.73;1.70;;;25.20;99.90;;;25.65;74.49;100575.50;4822855;29;20050;-69
2022/08/16 07:06:19;;;;;;;;;;;25.30;99.90;;;25.71;74.42;100575.06;4824484;29;20068;-69
2022/08/16 07:08:54;;;;;;;2.00;1.90;;;25.40;99.90;;;25.29;75.00;100494.13;4822777;29;19925;-69
2022/08/16 07:11:26;;;;;;;1.95;1.92;;;25.50;99.90;;;25.93;75.14;100579.81;4822804;29;20054;-71
2022/08/16 07:14:18;;;;;;;1.88;1.83;;;25.60;99.90;;;26.02;74.68;100590.00;4822737;29;20397;-71
2022/08/16 07:16:57;;;;;;;2.17;2.08;;;25.70;99.90;;;25.88;73.67;100572.00;4825228;29;20407;-69
2022/08/16 07:19:31;;;;;;;2.15;2.05;;;25.70;99.90;;;25.99;73.45;100592.06;4826101;29;20084;-70
2022/08/16 07:22:23;;;;;;;2.28;2.17;;;25.70;99.90;;;26.12;73.51;100606.50;4825969;29;20051;-68
2022/08/16 07:25:15;;;;;;;1.80;1.80;;;25.80;99.90;;;26.08;73.35;100604.97;4826987;29;20144;-70
2022/08/16 07:27:47;;;;;;;2.13;2.03;;;25.80;99.90;;;26.12;73.17;100604.66;4825790;29;20054;-73
2022/08/16 07:30:18;;;;;;;1.77;1.77;;;25.70;99.90;;;26.03;73.36;100610.72;4825931;29;20054;-67
2022/08/16 07:33:09;;;;;;;;;;;25.70;99.90;;;26.03;73.45;100613.44;4826153;29;20050;-68
2022/08/16 07:35:43;;;;;;;2.25;2.15;;;25.70;99.90;;;26.01;73.76;100612.69;4825550;29;19978;-68
2022/08/16 07:38:18;;;;;;;2.17;2.08;;;25.70;99.90;;;25.94;73.90;100620.38;4825537;29;20068;-68
2022/08/16 07:41:02;;;;;;;3.03;2.92;;;25.60;99.90;;;25.91;73.43;100617.91;4825738;29;20047;-69
2022/08/16 07:43:44;;;;;;;2.10;2.00;;;25.50;99.90;;;25.88;73.47;100625.34;4825619;29;20054;-69
2022/08/16 07:46:16;;;;;;;2.65;2.17;;;25.60;99.90;;;25.88;73.76;100633.47;4825539;29;20050;-69
2022/08/16 07:49:09;;;;;;;3.35;2.67;;;25.50;99.90;;;25.84;73.63;100632.84;4825271;29;20481;-68
2022/08/16 07:51:40;;;;;;;6.68;5.20;;;25.50;99.90;;;25.74;73.73;100626.38;4825339;29;20402;-68
2022/08/16 07:54:11;;;;;;;2.00;1.93;;;25.40;99.90;;;25.72;74.42;100628.31;4825433;29;20103;-67
2022/08/16 07:56:54;;;;;;;2.83;2.72;;;25.40;99.90;;;25.74;74.73;100630.91;4825462;29;20702;-67
2022/08/16 07:59:25;;;;;;;2.15;2.05;;;25.40;99.90;;;25.72;74.63;100630.16;4825063;29;20141;-68
2022/08/16 08:02:14;;;;;;;2.40;2.30;;;25.40;99.90;;;25.75;74.47;100629.91;4825278;29;20046;-67
2022/08/16 08:04:52;;;;;;;2.40;2.30;;;25.40;99.90;;;25.55;74.61;100593.38;4825082;29;20141;-67
2022/08/16 08:07:20;;;;;;;2.22;2.13;;;25.40;99.90;;;25.72;74.51;100639.16;4824941;29;20046;-67
2022/08/16 08:09:55;;;;;;;2.72;2.53;;;25.40;99.90;;;25.76;74.78;100629.81;4825095;29;20142;-67
2022/08/16 08:12:24;;;;;;;2.17;2.08;;;25.40;99.90;;;25.86;74.85;100628.19;4825100;29;20141;-67
2022/08/16 08:15:08;;;;;;;2.20;2.10;;;25.50;99.90;;;25.98;74.13;100626.44;4825056;29;20047;-67
2022/08/16 08:17:40;;;;;;;2.10;2.00;;;25.60;99.90;;;26.02;73.69;100629.78;4825051;29;20051;-68
2022/08/16 08:20:33;;;;;;;2.30;2.20;;;25.70;99.90;;;26.09;73.13;100634.72;4824635;29;20046;-67
2022/08/16 08:23:07;;;;;;;1.80;1.80;;;25.80;99.90;;;26.32;72.93;100644.75;4825228;29;20137;-67
2022/08/16 08:25:40;;;;;;;1.90;1.80;;;26.00;99.90;;;26.51;72.37;100644.28;4824979;29;20050;-67
2022/08/16 08:28:25;;;;;;;1.80;1.80;;;26.10;99.90;;;26.71;72.04;100646.41;4824738;29;20497;-67
2022/08/16 08:31:02;;;;;;;2.00;1.90;;;26.40;99.90;;;26.82;70.85;100651.03;4824889;29;20553;-67
2022/08/16 08:33:39;;;;;;;1.83;1.83;;;26.50;99.90;;;26.88;70.65;100659.59;4824809;29;20051;-68
2022/08/16 08:36:25;;;;;;;2.80;2.58;;;26.60;99.90;;;27.03;70.90;100674.72;4824516;29;20408;-67
2022/08/16 08:39:07;;;;;;;2.20;2.10;;;26.70;99.90;;;27.11;70.62;100666.88;4824535;29;20078;-68
2022/08/16 08:41:42;;;;;;;1.90;1.85;;;26.80;99.90;;;27.22;69.55;100669.63;4824437;29;20050;-68
2022/08/16 08:44:14;;;;;;;2.30;2.20;;;27.00;99.90;;;27.32;69.78;100665.25;4824630;29;20057;-67
2022/08/16 08:47:02;;;;;;;2.10;2.00;;;27.10;99.90;;;27.59;68.59;100673.09;4824475;29;20073;-67
2022/08/16 08:49:39;;;;;;;;;;;27.30;99.90;;;27.78;68.04;100678.84;4824882;29;20117;-66
2022/08/16 08:52:18;;;;;;;1.65;1.65;;;27.50;99.90;;;27.94;67.44;100700.25;4824571;29;20345;-69
2022/08/16 08:55:07;;;;;;;1.80;1.80;;;27.70;99.90;;;28.04;66.81;100682.25;4824081;29;20050;-67
2022/08/16 08:57:40;;;;;;;2.28;2.17;;;27.80;99.90;;;28.15;65.77;100683.13;4824484;29;20187;-66
2022/08/16 09:00:28;;;;;;;3.35;3.15;;;27.90;99.90;;;28.23;65.38;100694.25;4825548;29;20066;-67
2022/08/16 09:03:01;;;;;;;1.63;1.63;;;28.00;99.90;;;28.25;64.66;100699.56;4824248;29;20050;-67
2022/08/16 09:05:35;;;;;;;2.25;2.15;;;28.00;99.90;;;28.28;64.56;100699.34;4824546;29;20395;-67
2022/08/16 09:08:07;;;;;;;1.48;1.48;;;28.00;99.90;;;28.37;65.23;100699.47;4824093;29;20405;-67
2022/08/16 09:10:57;;;;;;;1.60;1.60;;;28.10;99.90;;;28.42;66.04;100699.06;4824932;29;20058;-67
2022/08/16 09:13:32;;;;;;;1.70;1.70;;;28.10;99.90;;;28.55;63.82;100699.88;4824192;29;20107;-67
2022/08/16 09:16:02;;;;;;;1.98;1.88;;;28.30;99.90;;;28.69;64.34;100704.19;4823820;29;20062;-67
2022/08/16 09:18:33;;;;;;;1.63;1.63;;;28.40;99.90;;;28.85;62.90;100702.78;4823973;29;20046;-67
2022/08/16 09:21:06;;;;;;;1.50;1.50;;;28.60;99.90;;;28.96;63.18;100701.91;4823970;29;20074;-67
2022/08/16 09:23:38;;;;;;;1.40;1.40;;;28.70;99.90;;;28.93;61.85;100704.88;4824080;29;20107;-67
2022/08/16 09:26:11;;;;;;;1.60;1.50;;;28.70;99.90;;;29.06;62.38;100706.44;4824045;29;20046;-67
2022/08/16 09:28:59;;;;;;;1.10;1.10;;;28.80;99.90;;;29.28;63.22;100709.13;4823450;29;20134;-67
2022/08/16 09:31:48;;;;;;;1.40;1.40;;;29.00;99.90;;;29.39;61.52;100691.84;4823839;29;20545;-67
2022/08/16 09:34:23;;;;;;;2.53;2.33;;;29.20;99.90;;;29.62;60.01;100698.03;4823893;29;20054;-67
2022/08/16 09:36:54;;;;;;;1.40;1.40;;;29.40;99.90;;;29.62;59.47;100711.69;4823709;29;20062;-66
2022/08/16 09:39:24;;;;;;;2.00;1.90;;;29.40;99.90;;;29.85;59.68;100708.75;4824463;29;20107;-67
2022/08/16 09:42:08;;;;;;;1.90;1.80;;;29.50;99.90;;;30.04;59.14;100710.75;4825165;29;20289;-67
2022/08/16 09:44:37;;;;;;;1.23;1.23;;;29.70;99.90;;;30.02;58.15;100710.84;4824725;29;20054;-67
2022/08/16 09:47:26;;;;;;;1.63;1.63;;;29.70;99.90;;;29.93;57.74;100717.13;4825040;29;20046;-67
2022/08/16 09:50:16;;;;;;;2.38;2.28;;;29.70;99.90;;;29.53;57.77;100713.34;4824897;29;20050;-67
2022/08/16 09:52:50;;;;;;;3.85;3.38;;;29.40;99.90;;;29.18;58.56;100719.06;4824738;29;20050;-67
2022/08/16 09:55:19;;;;;;;1.20;1.20;;;29.10;99.90;;;29.14;59.91;100706.69;4824540;29;20395;-67
2022/08/16 09:57:52;;;;;;;1.83;1.73;;;28.90;99.90;;;29.09;60.31;100719.78;4824583;29;20051;-67
2022/08/16 10:00:21;;;;;;;1.92;1.83;;;28.80;99.90;;;28.90;60.60;100722.31;4824739;29;20043;-67
2022/08/16 10:03:09;;;;;;;1.40;1.40;;;28.70;99.90;;;28.75;60.74;100731.75;4824539;29;20141;-67
2022/08/16 10:05:39;;;;;;;1.27;1.27;;;28.50;99.90;;;28.72;61.41;100729.31;4824751;29;20043;-67
2022/08/16 10:08:09;;;;;;;1.73;1.63;;;28.40;99.90;;;28.71;61.18;100703.03;4824434;29;20080;-67
2022/08/16 10:13:42;;;;;;;1.75;1.75;;;28.50;99.90;;;28.89;61.15;100733.34;4824562;29;20440;-67
2022/08/16 10:16:12;;;;;;;3.50;2.55;;;28.60;99.90;;;28.85;61.51;100732.75;4824210;29;20599;-67
2022/08/16 10:18:42;;;;;;;1.60;1.60;;;28.50;99.90;;;28.76;61.24;100728.06;4824264;29;20122;-67
2022/08/16 10:21:32;;;;;;;1.45;1.45;;;28.50;99.90;;;28.70;61.72;100731.28;4824451;29;20481;-67
2022/08/16 10:24:02;;;;;;;2.17;2.00;;;28.40;99.90;;;28.71;61.20;100723.94;4824237;29;20508;-67
2022/08/16 10:26:32;;;;;;;1.67;1.67;;;28.40;99.90;;;28.64;61.75;100728.19;4824114;29;20493;-67
2022/08/16 10:29:20;;;;;;;1.50;1.50;;;28.40;99.90;;;28.55;60.98;100735.25;4824133;29;20085;-67
2022/08/16 10:31:49;;;;;;;1.88;1.77;;;28.30;99.90;;;28.55;61.71;100739.84;4824368;29;20129;-66
2022/08/16 10:34:21;;;;;;;1.23;1.23;;;28.20;99.90;;;28.61;61.28;100732.00;4824140;29;20107;-67
2022/08/16 10:37:01;;;;;;;1.60;1.60;;;28.30;99.90;;;28.58;61.21;100737.72;4822811;29;20058;-67
2022/08/16 10:39:30;;;;;;;1.40;1.40;;;28.30;99.90;;;28.46;61.09;100735.94;4823938;29;20058;-67
2022/08/16 10:42:08;;;;;;;1.20;1.20;;;28.20;99.90;;;28.49;62.19;100746.59;4823823;29;20050;-66
2022/08/16 10:44:37;;;;;;;1.65;1.65;;;28.20;99.90;;;28.49;62.63;100741.16;4824083;29;20050;-65
2022/08/16 10:47:06;;;;;;;1.75;1.65;;;28.10;99.90;;;28.21;61.37;100725.28;4824099;29;20054;-66
2022/08/16 10:49:35;;;;;;;1.30;1.30;;;28.10;99.90;;;28.38;62.75;100754.75;4823727;29;20046;-66
2022/08/16 10:52:07;;;;;;;1.60;1.60;;;28.00;99.90;;;28.46;62.91;100760.44;4827137;29;20054;-66
2022/08/16 10:54:46;;;;;;;2.05;1.95;;;28.10;99.90;;;28.48;62.84;100762.06;4827369;29;20050;-65
2022/08/16 10:57:34;;;;;;;1.33;1.33;;;28.20;99.90;;;28.49;62.75;100763.78;4827311;29;20531;-66